createdAt,value
2023-10-06T00:00:41.739Z,2.77
2023-10-06T00:01:44.066Z,2.70
2023-10-06T00:02:46.646Z,3.10
2023-10-06T00:03:49.581Z,3.38
2023-10-06T00:04:53.008Z,3.13
2023-10-06T00:05:56.645Z,3.15
2023-10-06T00:07:07.216Z,3.25
2023-10-06T00:08:12.116Z,3.00
2023-10-06T00:09:29.568Z,3.35
2023-10-06T00:10:33.389Z,3.13
2023-10-06T00:11:35.027Z,2.88
2023-10-06T00:12:36.562Z,3.05
2023-10-06T00:13:39.255Z,3.30
2023-10-06T00:14:41.948Z,2.53
2023-10-06T00:15:45.123Z,2.53
2023-10-06T00:16:47.554Z,2.55
2023-10-06T00:17:50.378Z,2.88
2023-10-06T00:18:54.105Z,3.30
2023-10-06T00:19:58.037Z,3.15
2023-10-06T00:21:08.495Z,3.13
2023-10-06T00:22:18.942Z,2.95
2023-10-06T00:23:23.930Z,3.08
2023-10-06T00:24:27.130Z,3.03
2023-10-06T00:25:29.069Z,3.33
2023-10-06T00:26:30.559Z,3.00
2023-10-06T00:27:32.504Z,3.42
2023-10-06T00:28:34.060Z,3.15
2023-10-06T00:29:38.042Z,3.40
2023-10-06T00:30:40.125Z,2.92
2023-10-06T00:31:42.262Z,2.80
2023-10-06T00:32:43.935Z,2.92
2023-10-06T00:33:46.301Z,3.03
2023-10-06T00:34:50.091Z,2.53
2023-10-06T00:35:51.678Z,2.60
2023-10-06T00:36:53.856Z,2.70
2023-10-06T00:37:58.854Z,2.53
2023-10-06T00:39:00.356Z,2.72
2023-10-06T00:40:01.927Z,2.53
2023-10-06T00:41:07.786Z,2.58
2023-10-06T00:42:09.724Z,2.67
2023-10-06T00:43:16.918Z,2.90
2023-10-06T00:44:22.676Z,3.35
2023-10-06T00:45:27.266Z,3.30
2023-10-06T00:46:28.780Z,2.95
2023-10-06T00:47:39.718Z,2.90
2023-10-06T00:48:43.166Z,2.70
2023-10-06T00:49:45.755Z,2.67
2023-10-06T00:50:47.459Z,2.40
2023-10-06T00:51:48.942Z,2.55
2023-10-06T00:52:51.772Z,3.20
2023-10-06T00:53:57.373Z,2.67
2023-10-06T00:54:59.636Z,2.67
2023-10-06T00:56:04.282Z,2.65
2023-10-06T00:57:11.933Z,2.67
2023-10-06T00:58:13.763Z,2.50
2023-10-06T00:59:15.279Z,2.70
2023-10-06T01:00:22.064Z,2.63
2023-10-06T01:01:24.824Z,2.42
2023-10-06T01:02:27.116Z,3.42
2023-10-06T01:03:28.751Z,2.70
2023-10-06T01:04:36.013Z,2.47
2023-10-06T01:05:39.586Z,2.53
2023-10-06T01:06:43.619Z,2.50
2023-10-06T01:07:48.234Z,3.03
2023-10-06T01:08:56.900Z,2.83
2023-10-06T01:10:00.464Z,2.78
2023-10-06T01:11:18.354Z,2.65
2023-10-06T01:12:21.105Z,2.80
2023-10-06T01:13:23.818Z,2.53
2023-10-06T01:14:27.998Z,2.50
2023-10-06T01:15:31.035Z,2.50
2023-10-06T01:16:36.362Z,2.78
2023-10-06T01:17:38.285Z,2.50
2023-10-06T01:18:42.295Z,2.83
2023-10-06T01:19:50.792Z,2.28
2023-10-06T01:20:52.520Z,2.53
2023-10-06T01:21:55.595Z,2.17
2023-10-06T01:22:57.667Z,2.17
2023-10-06T01:23:59.538Z,2.33
2023-10-06T01:25:04.233Z,2.30
2023-10-06T01:26:05.688Z,2.22
2023-10-06T01:27:07.494Z,2.05
2023-10-06T01:28:13.732Z,2.45
2023-10-06T01:29:15.509Z,2.72
2023-10-06T01:30:20.440Z,2.45
2023-10-06T01:31:21.985Z,2.63
2023-10-06T01:32:23.495Z,2.95
2023-10-06T01:33:26.137Z,2.58
2023-10-06T01:34:28.393Z,2.45
2023-10-06T01:35:34.777Z,2.30
2023-10-06T01:36:39.552Z,2.50
2023-10-06T01:37:49.365Z,2.35
2023-10-06T01:38:51.058Z,2.40
2023-10-06T01:39:52.773Z,2.67
2023-10-06T01:40:55.189Z,2.90
2023-10-06T01:41:57.078Z,3.10
2023-10-06T01:42:59.110Z,2.70
2023-10-06T01:44:01.712Z,3.00
2023-10-06T01:45:14.852Z,2.47
2023-10-06T01:46:16.380Z,2.60
2023-10-06T01:47:19.555Z,2.80
2023-10-06T01:48:21.125Z,2.90
2023-10-06T01:49:23.267Z,2.58
2023-10-06T01:50:28.086Z,3.25
2023-10-06T01:51:29.555Z,2.67
2023-10-06T01:52:31.648Z,3.03
2023-10-06T01:53:40.122Z,2.80
2023-10-06T01:54:45.981Z,2.65
2023-10-06T01:55:54.048Z,3.00
2023-10-06T01:56:55.792Z,2.85
2023-10-06T01:57:58.143Z,2.65
2023-10-06T01:59:00.090Z,2.63
2023-10-06T02:00:02.517Z,3.08
2023-10-06T02:01:19.713Z,2.80
2023-10-06T02:02:25.625Z,2.72
2023-10-06T02:03:27.660Z,2.67
2023-10-06T02:04:41.197Z,2.40
2023-10-06T02:05:43.131Z,2.95
2023-10-06T02:06:46.196Z,2.60
2023-10-06T02:07:48.209Z,2.40
2023-10-06T02:08:52.539Z,2.92
2023-10-06T02:09:54.141Z,2.50
2023-10-06T02:10:56.681Z,2.50
2023-10-06T02:11:58.449Z,2.60
2023-10-06T02:13:00.035Z,2.42
2023-10-06T02:14:06.054Z,2.75
2023-10-06T02:15:11.676Z,3.15
2023-10-06T02:16:13.179Z,3.17
2023-10-06T02:17:14.684Z,2.83
2023-10-06T02:18:16.470Z,2.80
2023-10-06T02:19:18.077Z,3.30
2023-10-06T02:20:25.654Z,3.13
2023-10-06T02:21:30.058Z,2.97
2023-10-06T02:22:31.638Z,3.60
2023-10-06T02:23:38.327Z,3.20
2023-10-06T02:24:40.531Z,3.10
2023-10-06T02:25:42.313Z,3.10
2023-10-06T02:26:46.009Z,3.33
2023-10-06T02:27:51.650Z,3.67
2023-10-06T02:28:55.590Z,3.00
2023-10-06T02:29:57.798Z,2.88
2023-10-06T02:31:04.629Z,2.70
2023-10-06T02:32:10.118Z,3.38
2023-10-06T02:33:12.367Z,3.05
2023-10-06T02:34:27.931Z,3.08
2023-10-06T02:35:29.599Z,3.17
2023-10-06T02:36:32.254Z,2.70
2023-10-06T02:37:33.971Z,2.45
2023-10-06T02:38:47.825Z,3.10
2023-10-06T02:39:49.327Z,2.78
2023-10-06T02:40:50.809Z,2.47
2023-10-06T02:41:58.354Z,2.88
2023-10-06T02:43:01.365Z,3.08
2023-10-06T02:44:08.492Z,2.35
2023-10-06T02:45:10.068Z,2.88
2023-10-06T02:46:11.863Z,3.00
2023-10-06T02:47:15.154Z,3.15
2023-10-06T02:48:23.694Z,3.00
2023-10-06T02:49:36.494Z,2.92
2023-10-06T02:50:38.159Z,2.40
2023-10-06T02:51:48.748Z,2.80
2023-10-06T02:52:54.655Z,2.90
2023-10-06T02:54:18.725Z,2.50
2023-10-06T02:55:21.060Z,2.70
2023-10-06T02:56:29.708Z,2.90
2023-10-06T02:57:39.243Z,2.65
2023-10-06T02:58:42.228Z,2.85
2023-10-06T02:59:44.239Z,2.53
2023-10-06T03:00:51.348Z,2.75
2023-10-06T03:01:56.994Z,3.25
2023-10-06T03:03:13.347Z,3.10
2023-10-06T03:04:18.371Z,3.10
2023-10-06T03:05:20.205Z,2.80
2023-10-06T03:06:21.707Z,2.80
2023-10-06T03:07:23.699Z,2.90
2023-10-06T03:08:29.128Z,3.20
2023-10-06T03:09:39.034Z,2.80
2023-10-06T03:10:44.816Z,2.72
2023-10-06T03:11:50.568Z,3.42
2023-10-06T03:12:53.390Z,2.75
2023-10-06T03:13:59.631Z,3.17
2023-10-06T03:15:02.608Z,3.10
2023-10-06T03:16:11.506Z,3.05
2023-10-06T03:17:15.029Z,3.15
2023-10-06T03:18:17.988Z,3.07
2023-10-06T03:19:25.850Z,3.65
2023-10-06T03:20:34.678Z,2.65
2023-10-06T03:21:40.889Z,3.20
2023-10-06T03:22:44.170Z,3.70
2023-10-06T03:23:46.809Z,3.28
2023-10-06T03:24:59.210Z,2.93
2023-10-06T03:26:05.323Z,2.95
2023-10-06T03:27:13.597Z,3.42
2023-10-06T03:28:18.898Z,3.47
2023-10-06T03:29:29.408Z,3.08
2023-10-06T03:30:35.748Z,3.45
2023-10-06T03:31:46.726Z,4.00
2023-10-06T03:32:59.267Z,3.65
2023-10-06T03:34:01.499Z,3.88
2023-10-06T03:35:23.379Z,3.67
2023-10-06T03:36:38.552Z,3.85
2023-10-06T03:37:53.331Z,3.63
2023-10-06T03:39:06.906Z,3.63
2023-10-06T03:40:14.365Z,3.38
2023-10-06T03:41:26.014Z,3.40
2023-10-06T03:42:28.901Z,3.42
2023-10-06T03:43:48.883Z,3.80
2023-10-06T03:45:05.848Z,3.33
2023-10-06T03:46:11.014Z,3.65
2023-10-06T03:47:12.518Z,2.83
2023-10-06T03:48:14.143Z,3.47
2023-10-06T03:49:19.374Z,3.30
2023-10-06T03:50:21.309Z,3.30
2023-10-06T03:51:22.838Z,3.15
2023-10-06T03:52:24.310Z,3.25
2023-10-06T03:53:25.736Z,3.08
2023-10-06T03:54:27.207Z,3.30
2023-10-06T03:55:29.822Z,2.95
2023-10-06T03:56:32.114Z,3.00
2023-10-06T03:57:33.547Z,3.28
2023-10-06T03:58:34.998Z,3.13
2023-10-06T03:59:36.800Z,3.30
2023-10-06T04:00:48.646Z,3.13
2023-10-06T04:01:52.563Z,3.35
2023-10-06T04:02:54.268Z,3.00
2023-10-06T04:03:59.546Z,3.38
2023-10-06T04:05:06.807Z,3.05
2023-10-06T04:06:13.763Z,3.63
2023-10-06T04:07:15.242Z,2.65
2023-10-06T04:08:24.139Z,2.95
2023-10-06T04:09:29.384Z,3.05
2023-10-06T04:10:34.513Z,3.17
2023-10-06T04:11:36.044Z,3.45
2023-10-06T04:12:37.465Z,3.40
2023-10-06T04:13:40.224Z,3.55
2023-10-06T04:14:42.848Z,3.28
2023-10-06T04:15:49.946Z,3.00
2023-10-06T04:16:51.867Z,3.40
2023-10-06T04:17:53.475Z,3.15
2023-10-06T04:18:55.013Z,3.20
2023-10-06T04:19:56.606Z,3.30
2023-10-06T04:20:58.157Z,3.05
2023-10-06T04:21:59.599Z,3.05
2023-10-06T04:23:03.307Z,3.10
2023-10-06T04:24:05.277Z,2.88
2023-10-06T04:25:11.201Z,2.88
2023-10-06T04:26:16.185Z,3.60
2023-10-06T04:27:17.935Z,2.95
2023-10-06T04:28:20.713Z,3.15
2023-10-06T04:29:27.003Z,3.47
2023-10-06T04:30:31.314Z,3.03
2023-10-06T04:31:33.945Z,2.70
2023-10-06T04:32:35.505Z,2.80
2023-10-06T04:33:38.963Z,2.90
2023-10-06T04:34:41.911Z,2.70
2023-10-06T04:35:56.798Z,3.50
2023-10-06T04:36:58.544Z,3.30
2023-10-06T04:38:07.206Z,3.15
2023-10-06T04:39:12.462Z,3.03
2023-10-06T04:40:22.725Z,3.03
2023-10-06T04:41:24.243Z,2.53
2023-10-06T04:42:25.708Z,2.92
2023-10-06T04:44:29.621Z,2.92
2023-10-06T04:45:32.953Z,2.85
2023-10-06T04:46:36.226Z,3.28
2023-10-06T04:47:41.488Z,2.50
2023-10-06T04:48:43.111Z,2.87
2023-10-06T04:49:44.592Z,2.67
2023-10-06T04:50:53.010Z,3.10
2023-10-06T04:51:54.554Z,2.95
2023-10-06T04:52:56.473Z,3.00
2023-10-06T04:53:58.046Z,2.95
2023-10-06T04:54:59.798Z,2.83
2023-10-06T04:56:03.946Z,3.08
2023-10-06T04:57:05.397Z,3.00
2023-10-06T04:58:09.742Z,3.38
2023-10-06T04:59:12.660Z,3.00
2023-10-06T05:00:21.516Z,3.33
2023-10-06T05:01:23.002Z,3.10
2023-10-06T05:02:25.357Z,3.00
2023-10-06T05:03:27.978Z,3.35
2023-10-06T05:04:29.557Z,3.65
2023-10-06T05:05:35.066Z,3.33
2023-10-06T05:06:36.941Z,3.47
2023-10-06T05:07:39.385Z,2.90
2023-10-06T05:08:42.102Z,3.45
2023-10-06T05:09:43.603Z,3.55
2023-10-06T05:10:45.140Z,3.25
2023-10-06T05:11:47.203Z,3.40
2023-10-06T05:12:49.682Z,3.22
2023-10-06T05:13:53.885Z,3.23
2023-10-06T05:14:58.276Z,3.67
2023-10-06T05:16:01.217Z,3.10
2023-10-06T05:17:02.811Z,3.47
2023-10-06T05:18:06.589Z,3.10
2023-10-06T05:19:09.116Z,3.42
2023-10-06T05:20:20.515Z,3.20
2023-10-06T05:21:22.073Z,3.83
2023-10-06T05:22:23.585Z,4.03
2023-10-06T05:23:25.057Z,3.92
2023-10-06T05:24:26.937Z,3.72
2023-10-06T05:25:30.525Z,3.78
2023-10-06T05:26:32.018Z,3.83
2023-10-06T05:27:35.193Z,3.65
2023-10-06T05:28:38.323Z,3.97
2023-10-06T05:29:39.819Z,3.60
2023-10-06T05:30:43.080Z,3.55
2023-10-06T05:31:45.021Z,3.67
2023-10-06T05:32:46.678Z,3.25
2023-10-06T05:33:48.418Z,3.65
2023-10-06T05:34:50.661Z,3.83
2023-10-06T05:35:52.990Z,3.30
2023-10-06T05:36:55.749Z,3.22
2023-10-06T05:37:58.662Z,3.42
2023-10-06T05:39:04.065Z,3.30
2023-10-06T05:40:05.951Z,3.55
2023-10-06T05:41:12.536Z,3.33
2023-10-06T05:42:14.740Z,3.58
2023-10-06T05:43:19.651Z,3.33
2023-10-06T05:44:22.547Z,3.45
2023-10-06T05:45:24.828Z,3.80
2023-10-06T05:46:26.366Z,3.10
2023-10-06T05:47:29.755Z,3.78
2023-10-06T05:48:31.819Z,4.20
2023-10-06T05:49:33.923Z,4.07
2023-10-06T05:50:36.985Z,3.70
2023-10-06T05:51:39.915Z,3.67
2023-10-06T05:52:41.459Z,3.40
2023-10-06T05:53:44.988Z,3.90
2023-10-06T05:54:47.287Z,4.30
2023-10-06T05:55:50.977Z,3.97
2023-10-06T05:56:54.399Z,4.80
2023-10-06T05:57:57.178Z,5.22
2023-10-06T05:58:58.801Z,5.03
2023-10-06T06:00:02.170Z,4.53
2023-10-06T06:01:14.110Z,4.57
2023-10-06T06:02:17.037Z,3.90
2023-10-06T06:03:22.018Z,3.90
2023-10-06T06:04:28.421Z,4.30
2023-10-06T06:05:31.167Z,4.72
2023-10-06T06:06:37.174Z,5.10
2023-10-06T06:07:38.688Z,4.50
2023-10-06T06:08:41.562Z,4.63
2023-10-06T06:09:43.377Z,3.95
2023-10-06T06:10:46.386Z,4.32
2023-10-06T06:11:47.906Z,4.10
2023-10-06T06:12:49.360Z,3.47
2023-10-06T06:14:02.320Z,3.90
2023-10-06T06:15:09.641Z,3.53
2023-10-06T06:16:11.714Z,3.65
2023-10-06T06:17:13.354Z,3.80
2023-10-06T06:18:15.210Z,3.20
2023-10-06T06:19:16.733Z,2.90
2023-10-06T06:20:22.664Z,2.95
2023-10-06T06:21:26.107Z,3.80
2023-10-06T06:22:30.780Z,3.67
2023-10-06T06:23:34.715Z,4.10
2023-10-06T06:24:39.090Z,3.90
2023-10-06T06:25:41.868Z,3.95
2023-10-06T06:26:44.531Z,3.92
2023-10-06T06:27:46.420Z,5.05
2023-10-06T06:28:47.864Z,3.88
2023-10-06T06:29:50.929Z,3.42
2023-10-06T06:30:52.725Z,3.72
2023-10-06T06:31:54.331Z,3.47
2023-10-06T06:32:55.990Z,4.35
2023-10-06T06:33:58.585Z,3.40
2023-10-06T06:35:00.364Z,3.25
2023-10-06T06:36:02.138Z,3.20
2023-10-06T06:37:03.895Z,3.10
2023-10-06T06:38:08.443Z,2.88
2023-10-06T06:39:11.765Z,3.50
2023-10-06T06:40:14.362Z,2.92
2023-10-06T06:41:15.914Z,3.03
2023-10-06T06:42:18.157Z,3.20
2023-10-06T06:43:21.188Z,2.67
2023-10-06T06:44:22.718Z,3.10
2023-10-06T06:45:29.776Z,3.47
2023-10-06T06:46:31.625Z,3.00
2023-10-06T06:47:33.341Z,3.00
2023-10-06T06:48:36.363Z,2.75
2023-10-06T06:49:38.142Z,2.70
2023-10-06T06:50:43.974Z,2.78
2023-10-06T06:51:45.619Z,2.92
2023-10-06T06:52:49.737Z,2.97
2023-10-06T06:53:51.176Z,2.50
2023-10-06T06:54:52.658Z,2.30
2023-10-06T06:55:54.715Z,2.80
2023-10-06T06:56:56.254Z,2.78
2023-10-06T06:58:01.542Z,2.50
2023-10-06T06:59:03.112Z,2.75
2023-10-06T07:00:10.947Z,3.00
2023-10-06T07:01:15.828Z,2.92
2023-10-06T07:02:17.811Z,2.80
2023-10-06T07:03:19.310Z,2.60
2023-10-06T07:04:20.724Z,2.83
2023-10-06T07:05:23.897Z,3.00
2023-10-06T07:06:27.389Z,2.90
2023-10-06T07:07:28.899Z,2.60
2023-10-06T07:08:30.387Z,2.80
2023-10-06T07:09:31.824Z,2.53
2023-10-06T07:10:34.232Z,3.35
2023-10-06T07:11:35.699Z,2.95
2023-10-06T07:12:37.482Z,3.38
2023-10-06T07:13:39.266Z,3.00
2023-10-06T07:14:40.706Z,3.58
2023-10-06T07:15:42.880Z,3.00
2023-10-06T07:16:45.005Z,2.60
2023-10-06T07:17:50.637Z,3.65
2023-10-06T07:18:52.149Z,2.85
2023-10-06T07:19:53.628Z,3.67
2023-10-06T07:20:55.081Z,3.25
2023-10-06T07:21:56.571Z,3.50
2023-10-06T07:23:02.826Z,3.08
2023-10-06T07:24:04.717Z,3.55
2023-10-06T07:25:06.394Z,3.38
2023-10-06T07:26:11.968Z,3.08
2023-10-06T07:27:14.160Z,3.25
2023-10-06T07:28:15.675Z,3.60
2023-10-06T07:29:17.132Z,3.85
2023-10-06T07:30:23.174Z,3.60
2023-10-06T07:31:26.457Z,3.90
2023-10-06T07:32:28.237Z,3.97
2023-10-06T07:33:29.742Z,3.53
2023-10-06T07:34:31.244Z,3.65
2023-10-06T07:35:44.403Z,3.20
2023-10-06T07:36:46.089Z,3.58
2023-10-06T07:37:51.079Z,3.35
2023-10-06T07:38:53.525Z,3.10
2023-10-06T07:39:54.984Z,3.05
2023-10-06T07:41:00.115Z,3.50
2023-10-06T07:42:02.089Z,3.63
2023-10-06T07:43:06.262Z,4.15
2023-10-06T07:44:07.990Z,3.67
2023-10-06T07:45:10.223Z,2.95
2023-10-06T07:46:12.386Z,3.50
2023-10-06T07:47:14.300Z,3.80
2023-10-06T07:48:15.944Z,3.50
2023-10-06T07:49:17.399Z,4.00
2023-10-06T07:50:19.039Z,4.07
2023-10-06T07:51:20.931Z,4.15
2023-10-06T07:52:22.964Z,4.10
2023-10-06T07:53:25.065Z,3.30
2023-10-06T07:54:27.682Z,3.60
2023-10-06T07:55:29.163Z,3.47
2023-10-06T07:56:31.467Z,3.25
2023-10-06T07:57:34.196Z,3.97
2023-10-06T07:58:39.061Z,3.55
2023-10-06T07:59:40.812Z,3.13
2023-10-06T08:00:43.263Z,3.20
2023-10-06T08:01:45.178Z,3.78
2023-10-06T08:02:47.047Z,3.50
2023-10-06T08:03:48.744Z,3.60
2023-10-06T08:04:52.304Z,3.60
2023-10-06T08:05:53.724Z,3.65
2023-10-06T08:06:55.235Z,3.53
2023-10-06T08:07:59.245Z,3.50
2023-10-06T08:09:01.208Z,3.30
2023-10-06T08:10:04.551Z,3.75
2023-10-06T08:11:07.380Z,2.83
2023-10-06T08:12:09.394Z,3.80
2023-10-06T08:13:11.754Z,3.28
2023-10-06T08:14:14.571Z,3.45
2023-10-06T08:15:19.853Z,4.03
2023-10-06T08:16:21.387Z,3.85
2023-10-06T08:17:22.898Z,3.40
2023-10-06T08:18:25.479Z,3.30
2023-10-06T08:19:27.257Z,3.50
2023-10-06T08:20:30.638Z,3.25
2023-10-06T08:21:32.534Z,3.63
2023-10-06T08:22:35.194Z,3.17
2023-10-06T08:23:37.107Z,3.08
2023-10-06T08:24:39.570Z,3.67
2023-10-06T08:26:47.299Z,3.10
2023-10-06T08:27:51.398Z,3.15
2023-10-06T08:28:52.996Z,3.08
2023-10-06T08:29:54.507Z,3.10
2023-10-06T08:30:56.120Z,3.20
2023-10-06T08:31:59.106Z,3.22
2023-10-06T08:33:00.724Z,3.40
2023-10-06T08:34:06.774Z,3.17
2023-10-06T08:35:14.280Z,3.10
2023-10-06T08:36:15.962Z,2.95
2023-10-06T08:37:17.736Z,3.58
2023-10-06T08:38:19.522Z,3.00
2023-10-06T08:39:21.832Z,2.92
2023-10-06T08:40:28.084Z,3.40
2023-10-06T08:41:44.802Z,2.97
2023-10-06T08:42:50.838Z,3.58
2023-10-06T08:43:52.975Z,3.17
2023-10-06T08:44:54.872Z,3.20
2023-10-06T08:46:00.918Z,3.45
2023-10-06T08:47:16.254Z,2.88
2023-10-06T08:48:26.678Z,3.35
2023-10-06T08:49:28.879Z,2.85
2023-10-06T08:50:32.592Z,3.00
2023-10-06T08:51:34.394Z,3.05
2023-10-06T08:52:38.083Z,3.20
2023-10-06T08:53:41.638Z,3.35
2023-10-06T08:54:43.646Z,3.10
2023-10-06T08:55:45.499Z,2.95
2023-10-06T08:56:48.051Z,3.10
2023-10-06T08:57:51.882Z,3.20
2023-10-06T08:58:54.301Z,3.45
2023-10-06T08:59:57.763Z,3.03
2023-10-06T09:01:00.768Z,3.00
2023-10-06T09:02:02.543Z,3.60
2023-10-06T09:03:12.168Z,2.80
2023-10-06T09:04:14.082Z,3.15
2023-10-06T09:05:15.839Z,3.25
2023-10-06T09:06:17.390Z,3.45
2023-10-06T09:07:21.233Z,3.47
2023-10-06T09:08:22.870Z,3.50
2023-10-06T09:09:27.624Z,2.90
2023-10-06T09:10:32.411Z,3.28
2023-10-06T09:11:41.052Z,3.03
2023-10-06T09:12:43.935Z,3.30
2023-10-06T09:13:46.737Z,3.70
2023-10-06T09:14:55.453Z,2.83
2023-10-06T09:16:09.466Z,3.28
2023-10-06T09:17:12.398Z,4.00
2023-10-06T09:18:22.951Z,3.65
2023-10-06T09:19:24.577Z,3.60
2023-10-06T09:20:38.369Z,3.10
2023-10-06T09:22:03.512Z,3.23
2023-10-06T09:23:05.339Z,3.50
2023-10-06T09:24:20.832Z,3.83
2023-10-06T09:25:22.744Z,3.17
2023-10-06T09:26:30.745Z,3.83
2023-10-06T09:27:33.231Z,3.53
2023-10-06T09:28:34.972Z,3.83
2023-10-06T09:29:39.340Z,3.08
2023-10-06T09:30:51.315Z,3.03
2023-10-06T09:31:52.995Z,3.90
2023-10-06T09:33:06.033Z,3.45
2023-10-06T09:34:10.731Z,3.60
2023-10-06T09:35:23.676Z,3.30
2023-10-06T09:36:42.622Z,2.75
2023-10-06T09:37:46.368Z,3.80
2023-10-06T09:38:48.955Z,3.67
2023-10-06T09:40:11.398Z,3.75
2023-10-06T09:41:13.143Z,3.33
2023-10-06T09:42:16.596Z,2.95
2023-10-06T09:43:21.091Z,4.25
2023-10-06T09:44:24.579Z,4.13
2023-10-06T09:45:30.152Z,3.80
2023-10-06T09:46:36.854Z,4.07
2023-10-06T09:47:46.540Z,4.13
2023-10-06T09:48:51.804Z,3.83
2023-10-06T09:49:54.100Z,4.40
2023-10-06T09:50:55.903Z,4.68
2023-10-06T09:52:02.333Z,3.95
2023-10-06T09:53:04.668Z,4.10
2023-10-06T09:54:10.788Z,4.20
2023-10-06T09:55:12.877Z,3.78
2023-10-06T09:56:17.323Z,3.45
2023-10-06T09:57:19.052Z,3.45
2023-10-06T09:58:23.357Z,3.55
2023-10-06T09:59:28.158Z,3.70
2023-10-06T10:00:31.220Z,3.92
2023-10-06T10:01:35.667Z,4.18
2023-10-06T10:02:41.590Z,3.97
2023-10-06T10:03:44.297Z,3.80
2023-10-06T10:04:47.606Z,3.45
2023-10-06T10:05:50.045Z,3.03
2023-10-06T10:06:52.891Z,3.42
2023-10-06T10:07:55.322Z,3.10
2023-10-06T10:08:56.974Z,3.35
2023-10-06T10:09:58.925Z,3.60
2023-10-06T10:11:08.990Z,3.40
2023-10-06T10:12:28.263Z,3.28
2023-10-06T10:13:51.490Z,3.97
2023-10-06T10:15:39.198Z,3.20
2023-10-06T10:17:08.166Z,3.40
2023-10-06T10:18:34.941Z,3.50
2023-10-06T10:19:37.675Z,3.05
2023-10-06T10:20:39.610Z,3.30
2023-10-06T10:21:42.975Z,3.10
2023-10-06T10:22:44.848Z,3.25
2023-10-06T10:23:46.378Z,3.22
2023-10-06T10:25:52.932Z,2.83
2023-10-06T10:26:55.596Z,2.90
2023-10-06T10:28:28.387Z,3.10
2023-10-06T10:29:31.199Z,3.17
2023-10-06T10:30:50.741Z,3.38
2023-10-06T10:32:01.384Z,2.95
2023-10-06T10:33:08.383Z,2.88
2023-10-06T10:34:24.950Z,2.83
2023-10-06T10:35:27.119Z,2.80
2023-10-06T10:36:28.737Z,2.60
2023-10-06T10:37:32.010Z,3.25
2023-10-06T10:38:34.256Z,2.95
2023-10-06T10:39:51.889Z,2.60
2023-10-06T10:40:53.360Z,2.80
2023-10-06T10:41:59.350Z,2.95
2023-10-06T10:43:06.750Z,2.90
2023-10-06T10:44:25.208Z,2.83
2023-10-06T10:45:35.901Z,2.72
2023-10-06T10:46:53.994Z,2.90
2023-10-06T10:47:58.416Z,2.97
2023-10-06T10:49:01.436Z,3.00
2023-10-06T10:50:04.486Z,2.70
2023-10-06T10:51:13.605Z,2.83
2023-10-06T10:52:15.517Z,2.55
2023-10-06T10:53:24.692Z,2.25
2023-10-06T10:54:32.863Z,2.65
2023-10-06T10:55:35.975Z,2.72
2023-10-06T10:56:38.078Z,2.17
2023-10-06T10:57:45.616Z,2.60
2023-10-06T10:58:49.146Z,2.70
2023-10-06T11:00:08.871Z,2.50
2023-10-06T11:01:34.389Z,2.83
2023-10-06T11:02:45.773Z,2.40
2023-10-06T11:04:18.921Z,2.67
2023-10-06T11:05:22.012Z,2.50
2023-10-06T11:06:24.186Z,2.55
2023-10-06T11:07:25.680Z,2.80
2023-10-06T11:08:39.665Z,2.50
2023-10-06T11:09:42.106Z,2.60
2023-10-06T11:10:43.637Z,2.80
2023-10-06T11:11:45.151Z,2.53
2023-10-06T11:12:46.867Z,2.67
2023-10-06T11:14:03.376Z,2.78
2023-10-06T11:15:17.594Z,2.58
2023-10-06T11:16:19.334Z,2.53
2023-10-06T11:17:25.779Z,2.60
2023-10-06T11:18:36.077Z,2.80
2023-10-06T11:19:39.233Z,2.33
2023-10-06T11:20:41.198Z,2.70
2023-10-06T11:21:48.253Z,2.88
2023-10-06T11:22:55.245Z,2.65
2023-10-06T11:23:57.583Z,2.83
2023-10-06T11:25:04.162Z,3.15
2023-10-06T11:26:07.375Z,2.90
2023-10-06T11:27:24.766Z,2.90
2023-10-06T11:28:41.939Z,2.80
2023-10-06T11:29:46.765Z,2.58
2023-10-06T11:30:49.033Z,2.70
2023-10-06T11:31:51.881Z,2.70
2023-10-06T11:32:57.992Z,2.70
2023-10-06T11:33:59.618Z,2.70
2023-10-06T11:35:01.205Z,2.72
2023-10-06T11:36:02.814Z,3.45
2023-10-06T11:37:06.289Z,3.30
2023-10-06T11:38:13.155Z,3.45
2023-10-06T11:39:15.611Z,3.30
2023-10-06T11:40:17.486Z,3.03
2023-10-06T11:41:23.506Z,2.63
2023-10-06T11:42:25.151Z,3.22
2023-10-06T11:43:26.716Z,2.83
2023-10-06T11:44:40.274Z,3.10
2023-10-06T11:45:43.583Z,2.87
2023-10-06T11:46:52.931Z,3.10
2023-10-06T11:47:55.696Z,3.05
2023-10-06T11:49:10.968Z,3.00
2023-10-06T11:50:25.837Z,2.83
2023-10-06T11:51:29.163Z,3.00
2023-10-06T11:52:33.585Z,3.00
2023-10-06T11:53:40.052Z,2.92
2023-10-06T11:54:42.111Z,2.47
2023-10-06T11:55:43.790Z,2.80
2023-10-06T11:56:53.116Z,3.15
2023-10-06T11:57:55.221Z,3.00
2023-10-06T11:58:56.710Z,3.35
2023-10-06T11:59:58.478Z,2.97
2023-10-06T12:01:00.038Z,3.47
2023-10-06T12:02:10.654Z,3.53
2023-10-06T12:03:13.085Z,3.50
2023-10-06T12:04:33.885Z,3.58
2023-10-06T12:05:37.145Z,3.60
2023-10-06T12:06:39.975Z,3.50
2023-10-06T12:07:42.409Z,3.70
2023-10-06T12:08:47.142Z,4.10
2023-10-06T12:09:49.813Z,3.75
2023-10-06T12:10:52.766Z,3.38
2023-10-06T12:11:58.665Z,3.33
2023-10-06T12:13:00.781Z,4.28
2023-10-06T12:14:04.295Z,3.83
2023-10-06T12:15:07.428Z,3.42
2023-10-06T12:16:13.757Z,3.80
2023-10-06T12:17:16.369Z,3.88
2023-10-06T12:18:18.029Z,3.40
2023-10-06T12:19:19.479Z,2.90
2023-10-06T12:20:21.117Z,3.65
2023-10-06T12:21:22.782Z,3.40
2023-10-06T12:22:40.731Z,3.42
2023-10-06T12:23:43.628Z,3.67
2023-10-06T12:24:47.213Z,3.28
2023-10-06T12:25:48.689Z,3.35
2023-10-06T12:26:50.236Z,3.38
2023-10-06T12:27:52.312Z,3.42
2023-10-06T12:28:55.699Z,2.85
2023-10-06T12:29:57.480Z,3.53
2023-10-06T12:30:59.157Z,3.40
2023-10-06T12:32:03.018Z,3.50
2023-10-06T12:33:06.651Z,3.07
2023-10-06T12:34:09.498Z,3.45
2023-10-06T12:35:11.305Z,3.17
2023-10-06T12:36:13.824Z,3.17
2023-10-06T12:37:16.915Z,3.20
2023-10-06T12:38:18.417Z,3.13
2023-10-06T12:39:34.358Z,3.20
2023-10-06T12:40:35.851Z,3.08
2023-10-06T12:41:40.142Z,3.50
2023-10-06T12:42:44.968Z,3.28
2023-10-06T12:43:48.599Z,3.10
2023-10-06T12:44:50.420Z,3.28
2023-10-06T12:45:51.841Z,3.20
2023-10-06T12:46:53.349Z,3.10
2023-10-06T12:47:54.853Z,3.38
2023-10-06T12:48:56.440Z,3.17
2023-10-06T12:50:06.169Z,2.85
2023-10-06T12:51:12.591Z,3.28
2023-10-06T12:52:14.366Z,3.22
2023-10-06T12:53:17.558Z,3.38
2023-10-06T12:54:20.436Z,3.10
2023-10-06T12:55:28.428Z,3.10
2023-10-06T12:56:30.019Z,3.10
2023-10-06T12:57:35.391Z,3.42
2023-10-06T12:58:36.906Z,3.60
2023-10-06T12:59:38.346Z,3.10
2023-10-06T13:00:39.969Z,3.43
2023-10-06T13:01:41.590Z,3.33
2023-10-06T13:02:43.531Z,2.60
2023-10-06T13:03:45.353Z,3.20
2023-10-06T13:04:46.957Z,3.05
2023-10-06T13:05:48.991Z,3.10
2023-10-06T13:06:50.934Z,3.47
2023-10-06T13:07:52.836Z,3.00
2023-10-06T13:08:54.340Z,2.80
2023-10-06T13:09:55.845Z,3.05
2023-10-06T13:10:57.446Z,3.45
2023-10-06T13:12:00.077Z,3.00
2023-10-06T13:13:07.470Z,3.22
2023-10-06T13:14:09.317Z,3.10
2023-10-06T13:15:18.701Z,3.30
2023-10-06T13:16:20.355Z,3.60
2023-10-06T13:17:25.453Z,3.40
2023-10-06T13:18:27.726Z,3.47
2023-10-06T13:19:29.220Z,3.40
2023-10-06T13:20:30.835Z,3.07
2023-10-06T13:21:32.415Z,2.88
2023-10-06T13:22:38.507Z,3.60
2023-10-06T13:23:40.226Z,2.85
2023-10-06T13:24:41.968Z,3.10
2023-10-06T13:25:46.770Z,3.30
2023-10-06T13:26:48.302Z,2.97
2023-10-06T13:27:49.827Z,3.03
2023-10-06T13:28:54.523Z,2.92
2023-10-06T13:29:56.480Z,3.03
2023-10-06T13:30:58.279Z,3.35
2023-10-06T13:31:59.787Z,3.80
2023-10-06T13:33:01.777Z,3.40
2023-10-06T13:34:03.907Z,3.20
2023-10-06T13:35:12.808Z,3.30
2023-10-06T13:36:15.857Z,3.20
2023-10-06T13:37:17.523Z,3.25
2023-10-06T13:38:20.698Z,3.55
2023-10-06T13:39:26.496Z,2.90
2023-10-06T13:40:30.192Z,3.45
2023-10-06T13:41:31.681Z,3.10
2023-10-06T13:42:33.204Z,3.33
2023-10-06T13:43:34.802Z,3.38
2023-10-06T13:44:36.843Z,3.25
2023-10-06T13:45:46.227Z,3.50
2023-10-06T13:46:48.529Z,3.50
2023-10-06T13:47:56.797Z,2.90
2023-10-06T13:48:58.706Z,3.03
2023-10-06T13:50:00.286Z,3.33
2023-10-06T13:51:03.333Z,3.28
2023-10-06T13:52:04.904Z,3.45
2023-10-06T13:53:06.697Z,3.10
2023-10-06T13:54:08.380Z,3.08
2023-10-06T13:55:12.082Z,3.67
2023-10-06T13:56:13.751Z,3.05
2023-10-06T13:57:15.251Z,3.70
2023-10-06T13:58:16.819Z,3.53
2023-10-06T13:59:19.332Z,3.42
2023-10-06T14:00:39.978Z,3.42
2023-10-06T14:01:42.293Z,3.33
2023-10-06T14:02:43.906Z,3.67
2023-10-06T14:03:45.752Z,3.30
2023-10-06T14:04:47.362Z,2.95
2023-10-06T14:05:56.936Z,3.17
2023-10-06T14:06:58.628Z,3.20
2023-10-06T14:08:05.492Z,3.33
2023-10-06T14:09:07.148Z,3.92
2023-10-06T14:10:14.312Z,3.35
2023-10-06T14:11:15.929Z,2.67
2023-10-06T14:12:18.784Z,2.95
2023-10-06T14:13:27.388Z,3.20
2023-10-06T14:14:51.704Z,3.00
2023-10-06T14:15:56.711Z,3.33
2023-10-06T14:16:58.545Z,2.78
2023-10-06T14:18:00.316Z,2.80
2023-10-06T14:19:02.362Z,2.60
2023-10-06T14:20:11.831Z,2.85
2023-10-06T14:21:19.694Z,3.10
2023-10-06T14:22:23.966Z,3.30